• Join FlightAware (Why Join?)
  • Login
  • US Flag 
Rudolph Flight #1: Scheduled 
11:15PM EST


 

Airport Tracker/Info


-or-


 

Live Flight TrackerFlight Track Log ✈ UAL4476 ✈ 26-Apr-2013 ✈ KCLE - KBOS

Flight Track Log - Related Links

Times and Time Zones

All times are in EDT time to prevent confusion due to time zone crossing. See the UAL4476 flight status page for this flight to view local times or setup timezone preferences in your user account.

Time Position Orientation Groundspeed Altitude Reporting Facility
EDT Latitude Longitude Course Direction KTS MPH feet Rate Location/Type
09:04AM 41.3919 -81.8839 289° West 184 212 1,600  Level Cleveland Center
09:05AM 41.4197 -81.9897 289° West 172 198 5,700 2,280 Climbing Cleveland Center
09:06AM 41.4747 -81.9272 40° Northeast 167 192 7,900 2,040 Climbing Cleveland Center
09:07AM 41.5214 -81.8644 45° Northeast 216 249 9,800 1,440 Climbing Cleveland Center
09:08AM 41.5806 -81.7767 48° Northeast 277 319 10,800 1,260 Climbing Cleveland Center
09:09AM 41.6131 -81.6525 71° East 325 374 12,400 1,560 Climbing Cleveland Center
09:10AM 41.6456 -81.5250 71° East 346 398 14,000 1,440 Climbing Cleveland Center
09:11AM 41.6800 -81.3811 72° East 357 411 15,300 1,200 Climbing Cleveland Center
09:12AM 41.7100 -81.2450 74° East 372 428 16,400 1,080 Climbing Cleveland Center
09:13AM 41.7419 -81.1092 72° East 385 443 17,500 900 Climbing Cleveland Center
09:14AM 41.7781 -80.9672 71° East 391 450 18,200 840 Climbing Cleveland Center
09:15AM 41.8117 -80.8200 73° East 401 461 19,200 1,080 Climbing Cleveland Center
09:16AM 41.8453 -80.6722 73° East 406 467 20,400 1,080 Climbing Cleveland Center
09:17AM 41.8786 -80.5219 73° East 411 473 21,400 1,080 Climbing Cleveland Center
09:18AM 41.9139 -80.3656 73° East 426 490 22,600 840 Climbing Cleveland Center
09:19AM 41.9469 -80.2286 72° East 426 490 23,100 720 Climbing Cleveland Center
09:20AM 41.9797 -80.0692 74° East 432 497 24,100 960 Climbing Cleveland Center
09:21AM 42.0206 -79.8956 72° East 437 503 25,100 1,080 Climbing Cleveland Center
09:22AM 42.0569 -79.7386 73° East 437 503 26,300 1,200 Climbing Cleveland Center
09:23AM 42.0892 -79.5814 75° East 437 503 27,600 1,260 Climbing Cleveland Center
09:24AM 42.1231 -79.4297 73° East 431 496 28,900 1,260 Climbing Cleveland Center
09:25AM 42.1694 -79.2917 66° East 414 476 30,200 1,020 Climbing Cleveland Center
09:26AM 42.2222 -79.1561 62° Northeast 403 464 31,000 360 Climbing Cleveland Center
09:27AM 42.2828 -79.0114 60° Northeast 416 479 31,000  Level Cleveland Center
09:28AM 42.3392 -78.8753 61° Northeast 428 493 31,000  Level Cleveland Center
09:29AM 42.4056 -78.7217 60° Northeast 453 521 31,000  Level Cleveland Center
09:30AM 42.4697 -78.5678 60° Northeast 465 535 31,000  Level Cleveland Center
09:31AM 42.5358 -78.4164 59° Northeast 470 541 31,000 60 Level Cleveland Center
09:32AM 42.5994 -78.2617 61° Northeast 470 541 31,200 600 Climbing Cleveland Center
09:33AM 42.6250 -78.0886 79° East 465 535 32,200 960 Climbing Cleveland Center
09:34AM 42.6314 -77.9106 87° East 465 535 33,200 960 Climbing Cleveland Center
09:35AM 42.6414 -77.7156 86° East 465 535 34,200 540 Climbing Cleveland Center
09:38AM 42.6561 -77.3194 87° East 469 540 35,000 240 Climbing Boston Center
09:39AM 42.6639 -77.1364 87° East 479 551 35,000  Level Boston Center
09:40AM 42.6714 -76.9533 87° East 479 551 35,000  Level Boston Center
09:41AM 42.6764 -76.7672 88° East 484 557 35,000  Level Boston Center
09:42AM 42.6856 -76.5814 86° East 484 557 35,000  Level Boston Center
09:43AM 42.6900 -76.4008 88° East 484 557 35,000  Level Boston Center
09:44AM 42.6961 -76.2175 87° East 478 550 35,000 -60 Level Boston Center
09:45AM 42.7019 -76.0342 87° East 478 550 34,900  Descending Boston Center
09:46AM 42.7058 -75.8478 88° East 478 550 35,000  Climbing Boston Center
09:47AM 42.7131 -75.6672 87° East 478 550 35,000  Level Boston Center
09:48AM 42.7161 -75.4867 89° East 478 550 35,000  Level Boston Center
09:49AM 42.7233 -75.2861 87° East 483 556 35,000  Level Boston Center
09:50AM 42.7275 -75.1083 88° East 483 556 35,000  Level Boston Center
09:51AM 42.7297 -74.9247 89° East 477 549 35,000  Level Boston Center
09:52AM 42.7333 -74.7439 88° East 477 549 35,000  Level Boston Center
09:53AM 42.7350 -74.5603 89° East 477 549 35,000  Level Boston Center
09:54AM 42.7319 -74.3736 91° East 477 549 35,000  Level Boston Center
09:55AM 42.7183 -74.1950 96° East 482 555 35,000  Level Boston Center
09:56AM 42.7064 -74.0167 95° East 477 549 35,000  Level Boston Center
09:57AM 42.6900 -73.8356 97° East 482 555 35,000  Level Boston Center
09:58AM 42.6833 -73.6800 93° East 474 545 35,000 -300 Level Boston Center
09:59AM 42.6644 -73.4792 97° East 481 554 34,500 -1,200 Descending Boston Center
10:00AM 42.6533 -73.3181 95° East 476 548 32,700 -1,980 Descending Boston Center
10:01AM 42.6358 -73.1175 97° East 486 559 30,600 -2,040 Descending Boston Center
10:02AM 42.6244 -72.9311 95° East 486 559 28,700 -1,980 Descending Boston Center
10:03AM 42.6083 -72.7475 97° East 491 565 26,700 -2,100 Descending Boston Center
10:04AM 42.5919 -72.5642 97° East 491 565 24,500 -2,580 Descending Boston Center
10:05AM 42.5756 -72.3950 97° East 471 542 21,600 -2,700 Descending Boston Center
10:06AM 42.5608 -72.2456 98° East 458 527 19,200 -2,100 Descending Boston Center
10:07AM 42.5456 -72.0681 97° East 442 509 17,400 -2,100 Descending Boston Center
10:08AM 42.5325 -71.9217 97° East 437 503 15,100 -2,520 Descending Boston Center
10:09AM 42.5192 -71.7583 96° East 413 475 12,400 -1,980 Descending Boston Center
10:10AM 42.5081 -71.6347 97° East 383 441 11,200 -1,260 Descending Boston Center
10:10AM 42.5000 -71.5500 97° East 366 421 10,600 -1,260 Descending KA90
10:11AM 42.5000 -71.4333 90° East 293 337 9,300 -1,440 Descending KA90
10:12AM 42.4833 -71.3333 103° East 279 321 7,700 -1,800 Descending KA90
10:13AM 42.4500 -71.2500 118° Southeast 262 302 5,900 -1,380 Descending KA90
10:14AM 42.4167 -71.1833 124° Southeast 235 270 5,000 -1,260 Descending KA90
10:15AM 42.3500 -71.1667 170° South 212 244 3,400 -1,320 Descending KA90
10:16AM 42.3222 -71.1539 161° South 219 252 3,000 -660 Descending Boston Center
10:17AM 42.2906 -71.1267 148° Southeast 181 208 2,400 -840 Descending Boston Center
10:17AM 42.2833 -71.1000 110° East 149 171 1,800 -780 Descending KA90
10:18AM 42.3000 -71.0500 66° East 134 154 1,300 -660 Descending KA90
10:19AM 42.3333 -71.0167 36° Northeast 134 154 500 -780 Descending KA90